Ain Arnat Airport

Airport
ICAO code: 
DAAS
IATA Code: 
QSF
Summary
ICAO Region: 
AFI
Territory: 
Location: 
, Setif
Serving: 
Setif
Elevation: 
3360 ft
Coordinates: 
Aerial View: 
36° 10' 41.16" N, 5° 19' 28.164" E
Metar
Observation
DAAS 270700Z 25007KT 8000 FEW010 SCT026 03/01 Q1007
Station
Setif
Date/Time
2021-11-27 07:00:00
Wind direction
250°
Wind speed
07 kts
Lowest cloud amount
few clouds
Temperature
3°C
Dew point
1°C
Humidity
86%
QNH
1007 hPa
Weather condition
n/a
Airport map: 
Aerial View: 

SKYbrary Partners:

Safety knowledge contributed by: